Cromwell, MN (55726)

11:51 AM CDT on August 03, 2015 (GMT -0500)
Coffee Lake | | Change Station
CLOSE
Current Station
Personal Weather Station
Location: Moose Lake Twp., MN
Elevation: 1060 ft
Nearby Weather Stations

Elev 1060 ft 46.43 °N, 92.78 °W | Updated 19 seconds ago

Partly Cloudy
Partly Cloudy
67.5 °F
Feels Like 67.5 °F
N
17.4
Wind Variable Wind from NW
Gusts 19.9 mph

Today
High -- | Low -- °F
--% Chance of Precip.
Yesterday
High -- | Low -- °F
Precip. -- in
5:54 AM 8:40 PM
Waning Gibbous, 85% visible
Pressure 29.86 in
Visibility 10.0 miles
Clouds Scattered Clouds 4100 ft
Scattered Clouds 4700 ft
Dew Point 54 °F
Humidity 62%
Rainfall 0.00 in
Snow Depth Not available.
UV 7 out of 12
Pollen 5.60 out of 12
Air Quality Not available.
Flu Activity Not available.
METAR KMZH 031634Z AUTO 32011G18KT 10SM SCT041 SCT047 20/10 A2986 RMK AO2

More Conditions Fewer Conditions

Pressure 29.86 in
Visibility 10.0 miles
Clouds Scattered Clouds 4100 ft
Scattered Clouds 4700 ft
Dew Point 54 °F
Humidity 62%
Rainfall 0.00 in
Snow Depth Not available.
UV 7 out of 12
Pollen 5.60 out of 12
Air Quality Not available.
Flu Activity Not available.
METAR KMZH 031634Z AUTO 32011G18KT 10SM SCT041 SCT047 20/10 A2986 RMK AO2

More Conditions Fewer Conditions

10-Day Weather Forecast

×

Almanac

Astronomy

Aug. 03, 2015 Rise Set
Actual Time
Civil Twilight
Nautical Twilight
Astronomical Twilight
Moon
Length of Visible Light
Length of Day
Tomorrow will be .
, % of the Moon is Illuminated

Today's Extremes

State Highs State Lows

Community

WunderPhotos

Upload Photos

1,843,674 photos uploaded!

WunderBlogs® & News

Nearby

Air Quality

  Air Quality AQ Index Pollutant
Not available.

Snow Depth

Station Depth Elevation

Earthquake Activity

City Distance Mag. Time & Date
Minimum magnitude displayed is 2.5.

Coastal Water Temperatures

Place Temperature

Stations

Nearby Weather Stations

Station Location Temp. Windchill Dew Point Humidity Wind Precip. Elev Updated Type